logo
Search for airport 
image banner adimage banner adimage banner ad
image banner ad

EDCS - Saarmund

Located in Saarmund, Germany

ICAO - EDCS, IATA -

Data provided by Airmate  

General information

Coordinates: N52°18'33" E13°6'2"
Elevation is 174 feet MSL.
Magnetic variation is 4.0000° East
Rated:
View ratings:
[VIEW]
View others Airports in Brandenburg

Operational data

Special qualification required
Current time UTC:
Current local time:
Weather at : EDDB - Berlin Brandenburg ( 28 km )
METAR: EDDB 220220Z AUTO 23009KT CAVOK 19/17 Q1007 NOSIG
TAF: TAF EDDB 212300Z 2200/2224 23007KT 8000 SCT040 PROB30 TEMPO 2200/2209 3500 -RA BR BKN008 BECMG 2203/2206 27015G25KT BKN012 BECMG 2206/2209 CAVOK BECMG 2217/2219 28007KT
View NOTAMs / SUP AIP / TFR affecting this airport [VIEW]
Communications frequencies: [VIEW]

Runways:

RWY identifierQFULength (ft)Width (ft)SurfaceLDA (ft)
0996°328198GRASS2379
27276°328198GRASS2051

Airport contact information

Address: Saarmund Germany

Satellite view of EDCS